createdAt,value
2019-02-20T00:04:23.986Z,7.73
2019-02-20T00:07:13.697Z,8.47
2019-02-20T00:09:56.575Z,7.60
2019-02-20T00:12:46.340Z,7.90
2019-02-20T00:15:28.627Z,7.70
2019-02-20T00:18:18.365Z,8.23
2019-02-20T00:21:00.454Z,7.67
2019-02-20T00:23:50.222Z,7.87
2019-02-20T00:26:33.375Z,8.10
2019-02-20T00:29:23.115Z,8.23
2019-02-20T00:32:05.976Z,7.87
2019-02-20T00:34:55.712Z,8.17
2019-02-20T00:37:38.414Z,8.53
2019-02-20T00:40:28.190Z,8.00
2019-02-20T00:43:10.437Z,8.40
2019-02-20T00:49:18.344Z,8.97
2019-02-20T00:52:26.846Z,8.50
2019-02-20T00:55:12.294Z,9.00
2019-02-20T01:00:57.524Z,8.60
2019-02-20T01:03:47.248Z,8.10
2019-02-20T01:06:37.328Z,8.40
2019-02-20T01:09:27.052Z,8.20
2019-02-20T01:12:09.183Z,8.43
2019-02-20T01:14:58.932Z,8.13
2019-02-20T01:17:41.174Z,8.50
2019-02-20T01:20:30.981Z,9.10
2019-02-20T01:23:13.214Z,9.03
2019-02-20T01:26:02.919Z,9.17
2019-02-20T01:28:44.884Z,8.00
2019-02-20T01:31:34.627Z,8.73
2019-02-20T01:34:16.813Z,8.23
2019-02-20T01:37:06.528Z,9.10
2019-02-20T01:39:49.588Z,8.37
2019-02-20T01:42:39.390Z,7.80
2019-02-20T01:45:21.963Z,8.17
2019-02-20T01:48:11.707Z,8.13
2019-02-20T01:50:54.045Z,8.33
2019-02-20T01:53:43.802Z,7.70
2019-02-20T01:56:26.239Z,8.23
2019-02-20T02:02:20.196Z,8.00
2019-02-20T02:05:02.800Z,7.70
2019-02-20T02:07:52.550Z,8.20
2019-02-20T02:10:42.497Z,8.23
2019-02-20T02:13:32.727Z,8.20
2019-02-20T02:16:22.510Z,8.33
2019-02-20T02:19:12.882Z,8.60
2019-02-20T02:22:02.739Z,8.73
2019-02-20T02:24:52.575Z,8.77
2019-02-20T02:27:42.471Z,8.63
2019-02-20T02:30:32.226Z,9.00
2019-02-20T02:33:21.993Z,8.33
2019-02-20T02:36:11.827Z,8.47
2019-02-20T02:39:01.607Z,8.63
2019-02-20T02:41:51.474Z,8.40
2019-02-20T02:44:41.556Z,8.80
2019-02-20T02:47:31.257Z,8.00
2019-02-20T02:50:14.077Z,8.70
2019-02-20T02:53:03.849Z,7.70
2019-02-20T02:55:53.613Z,8.10
2019-02-20T02:58:43.437Z,8.07
2019-02-20T03:01:52.324Z,8.70
2019-02-20T03:04:36.519Z,8.33
2019-02-20T03:07:19.147Z,8.30
2019-02-20T03:10:09.085Z,8.93
2019-02-20T03:12:58.874Z,8.77
2019-02-20T03:15:48.672Z,8.40
2019-02-20T03:18:38.451Z,8.33
2019-02-20T03:21:28.274Z,8.53
2019-02-20T03:24:18.213Z,8.57
2019-02-20T03:27:08.009Z,7.60
2019-02-20T03:29:50.059Z,7.97
2019-02-20T03:32:39.787Z,8.13
2019-02-20T03:35:48.611Z,7.87
2019-02-20T03:38:38.437Z,8.30
2019-02-20T03:41:28.214Z,8.10
2019-02-20T03:44:31.444Z,8.03
2019-02-20T03:47:13.737Z,8.33
2019-02-20T03:50:03.436Z,8.10
2019-02-20T03:52:46.232Z,8.70
2019-02-20T03:55:35.938Z,8.70
2019-02-20T03:58:18.931Z,8.87
2019-02-20T04:01:08.774Z,8.57
2019-02-20T04:03:50.806Z,8.00
2019-02-20T04:06:40.506Z,8.50
2019-02-20T04:09:22.884Z,8.33
2019-02-20T04:12:12.621Z,8.80
2019-02-20T04:14:54.809Z,8.87
2019-02-20T04:17:44.521Z,8.60
2019-02-20T04:20:26.768Z,8.13
2019-02-20T04:23:16.525Z,8.13
2019-02-20T04:25:59.197Z,7.90
2019-02-20T04:28:48.887Z,7.90
2019-02-20T04:31:31.264Z,7.70
2019-02-20T04:34:21.012Z,8.40
2019-02-20T04:37:03.969Z,8.70
2019-02-20T04:39:53.712Z,7.87
2019-02-20T04:42:36.013Z,8.63
2019-02-20T04:45:25.941Z,8.13
2019-02-20T04:48:08.173Z,8.50
2019-02-20T04:50:57.906Z,8.27
2019-02-20T04:53:40.396Z,7.93
2019-02-20T04:56:30.121Z,7.83
2019-02-20T04:59:12.354Z,8.37
2019-02-20T05:02:02.076Z,7.33
2019-02-20T05:04:44.088Z,8.07
2019-02-20T05:07:33.827Z,7.60
2019-02-20T05:10:17.493Z,7.27
2019-02-20T05:13:07.240Z,7.37
2019-02-20T05:15:49.337Z,7.23
2019-02-20T05:18:39.052Z,8.10
2019-02-20T05:21:21.173Z,7.90
2019-02-20T05:24:11.003Z,7.70
2019-02-20T05:26:57.519Z,8.97
2019-02-20T05:29:42.028Z,8.83
2019-02-20T05:32:31.847Z,8.80
2019-02-20T05:35:21.639Z,8.90
2019-02-20T05:38:11.397Z,8.30
2019-02-20T05:40:42.033Z,8.07
2019-02-20T05:43:31.785Z,8.03
2019-02-20T05:46:15.416Z,8.80
2019-02-20T05:49:05.158Z,8.73
2019-02-20T05:54:58.031Z,8.37
2019-02-20T05:57:47.813Z,9.00
2019-02-20T06:00:37.569Z,8.67
2019-02-20T06:03:21.313Z,10.07
2019-02-20T06:06:11.064Z,10.20
2019-02-20T06:08:53.591Z,9.07
2019-02-20T06:14:46.222Z,9.80
2019-02-20T06:17:36.093Z,9.13
2019-02-20T06:20:18.649Z,8.53
2019-02-20T06:23:08.447Z,8.27
2019-02-20T06:25:50.922Z,9.17
2019-02-20T06:28:40.656Z,8.60
2019-02-20T06:31:22.671Z,7.80
2019-02-20T06:34:12.469Z,8.73
2019-02-20T06:36:55.099Z,8.93
2019-02-20T06:39:44.829Z,8.77
2019-02-20T06:42:27.355Z,8.50
2019-02-20T06:45:17.053Z,8.80
2019-02-20T06:47:59.349Z,9.07
2019-02-20T06:50:49.109Z,9.07
2019-02-20T06:53:31.120Z,9.47
2019-02-20T06:56:01.819Z,9.63
2019-02-20T06:58:51.554Z,8.77
2019-02-20T07:01:34.110Z,9.30
2019-02-20T07:04:23.931Z,9.10
2019-02-20T07:07:52.089Z,8.10
2019-02-20T07:11:09.040Z,8.77
2019-02-20T07:14:11.471Z,8.40
2019-02-20T07:17:04.966Z,8.57
2019-02-20T07:20:32.806Z,8.30
2019-02-20T07:23:53.611Z,9.30
2019-02-20T07:26:57.130Z,9.40
2019-02-20T07:33:04.198Z,12.83
2019-02-20T07:35:53.999Z,13.13
2019-02-20T07:38:43.818Z,11.87
2019-02-20T07:41:33.563Z,10.37
2019-02-20T07:44:17.298Z,8.77
2019-02-20T07:47:07.067Z,9.03
2019-02-20T07:49:56.869Z,10.10
2019-02-20T07:52:46.998Z,10.17
2019-02-20T07:55:36.778Z,9.37
2019-02-20T07:58:26.541Z,9.10
2019-02-20T08:01:16.298Z,9.37
2019-02-20T08:04:06.143Z,9.30
2019-02-20T08:06:55.988Z,9.07
2019-02-20T08:09:45.792Z,8.73
2019-02-20T08:12:54.684Z,8.70
2019-02-20T08:15:44.400Z,8.40
2019-02-20T08:18:34.098Z,8.83
2019-02-20T08:21:23.824Z,9.27
2019-02-20T08:24:07.764Z,8.77
2019-02-20T08:26:57.506Z,8.73
2019-02-20T08:29:40.111Z,8.70
2019-02-20T08:32:29.838Z,8.77
2019-02-20T08:35:19.586Z,8.80
2019-02-20T08:38:06.200Z,8.63
2019-02-20T08:40:48.515Z,7.97
2019-02-20T08:43:19.171Z,7.77
2019-02-20T08:46:08.958Z,8.50
2019-02-20T08:48:51.774Z,8.60
2019-02-20T08:51:41.672Z,7.73
2019-02-20T08:54:31.431Z,8.80
2019-02-20T08:57:40.310Z,7.57
2019-02-20T09:00:30.038Z,7.13
2019-02-20T09:03:12.641Z,6.90
2019-02-20T09:06:15.721Z,7.40
2019-02-20T09:08:57.921Z,7.50
2019-02-20T09:11:47.634Z,6.70
2019-02-20T09:14:29.640Z,7.50
2019-02-20T09:17:19.389Z,8.87
2019-02-20T09:20:09.741Z,8.77
2019-02-20T09:22:59.464Z,7.97
2019-02-20T09:25:42.004Z,7.10
2019-02-20T09:28:31.792Z,7.93
2019-02-20T09:31:02.483Z,7.27
2019-02-20T09:33:52.267Z,7.80
2019-02-20T09:36:34.913Z,8.47
2019-02-20T09:39:43.684Z,9.17
2019-02-20T09:42:26.092Z,9.07
2019-02-20T09:45:15.828Z,8.70
2019-02-20T09:47:58.438Z,8.90
2019-02-20T09:50:48.175Z,8.93
2019-02-20T09:53:30.770Z,8.23
2019-02-20T09:56:19.899Z,8.33
2019-02-20T09:59:02.378Z,7.77
2019-02-20T10:01:33.063Z,7.73
2019-02-20T10:04:22.883Z,8.07
2019-02-20T10:07:05.471Z,7.27
2019-02-20T10:09:55.277Z,7.43
2019-02-20T10:12:44.984Z,7.43
2019-02-20T10:15:34.693Z,7.40
2019-02-20T10:18:24.419Z,6.70
2019-02-20T10:21:07.001Z,7.47
2019-02-20T10:23:56.712Z,6.90
2019-02-20T10:27:26.043Z,6.50
2019-02-20T10:29:30.590Z,6.70
2019-02-20T10:32:13.151Z,6.93
2019-02-20T10:35:02.900Z,6.53
2019-02-20T10:37:45.073Z,6.33
2019-02-20T10:40:34.815Z,8.00
2019-02-20T10:43:16.841Z,7.73
2019-02-20T10:46:06.599Z,7.83
2019-02-20T10:48:48.830Z,8.13
2019-02-20T10:51:38.530Z,8.20
2019-02-20T10:54:21.097Z,7.33
2019-02-20T10:57:11.670Z,7.00
2019-02-20T10:59:53.885Z,7.37
2019-02-20T11:02:43.638Z,7.30
2019-02-20T11:05:26.306Z,7.23
2019-02-20T11:08:16.057Z,7.40
2019-02-20T11:10:58.531Z,7.20
2019-02-20T11:13:48.273Z,7.33
2019-02-20T11:16:30.218Z,7.77
2019-02-20T11:19:19.927Z,8.10
2019-02-20T11:22:02.445Z,7.70
2019-02-20T11:24:53.803Z,7.67
2019-02-20T11:27:36.747Z,8.27
2019-02-20T11:30:45.568Z,8.07
2019-02-20T11:33:27.955Z,8.37
2019-02-20T11:36:17.699Z,8.70
2019-02-20T11:38:59.939Z,9.50
2019-02-20T11:41:49.676Z,9.40
2019-02-20T11:44:32.438Z,8.67
2019-02-20T11:47:22.202Z,8.73
2019-02-20T11:50:07.801Z,9.17
2019-02-20T11:52:57.719Z,9.80
2019-02-20T11:55:40.179Z,9.57
2019-02-20T11:58:22.774Z,10.10
2019-02-20T12:01:12.663Z,9.23
2019-02-20T12:04:02.437Z,9.33
2019-02-20T12:06:52.133Z,10.10
2019-02-20T12:09:41.903Z,9.97
2019-02-20T12:12:24.293Z,10.30
2019-02-20T12:15:14.004Z,10.63
2019-02-20T12:17:55.895Z,10.50
2019-02-20T12:21:04.731Z,10.90
2019-02-20T12:23:47.335Z,11.43
2019-02-20T12:26:37.420Z,11.80
2019-02-20T12:29:20.119Z,10.97
2019-02-20T12:32:09.857Z,11.10
2019-02-20T12:34:52.024Z,11.43
2019-02-20T12:37:41.780Z,11.33
2019-02-20T12:40:26.215Z,11.93
2019-02-20T12:43:15.984Z,11.53
2019-02-20T12:45:58.892Z,12.30
2019-02-20T12:48:48.670Z,11.50
2019-02-20T12:51:30.614Z,12.93
2019-02-20T12:54:20.336Z,11.83
2019-02-20T12:57:02.788Z,12.60
2019-02-20T12:59:52.612Z,12.07
2019-02-20T13:02:36.118Z,12.13
2019-02-20T13:05:25.854Z,13.00
2019-02-20T13:08:08.767Z,11.80
2019-02-20T13:10:58.500Z,12.17
2019-02-20T13:13:40.568Z,11.77
2019-02-20T13:16:30.288Z,12.33
2019-02-20T13:19:13.212Z,11.80
2019-02-20T13:22:03.056Z,11.53
2019-02-20T13:24:45.678Z,11.67
2019-02-20T13:27:35.456Z,11.27
2019-02-20T13:30:17.900Z,11.03
2019-02-20T13:33:07.631Z,11.17
2019-02-20T13:35:50.234Z,11.60
2019-02-20T13:38:39.995Z,11.77
2019-02-20T13:41:24.612Z,11.60
2019-02-20T13:44:33.438Z,11.00
2019-02-20T13:47:16.071Z,10.87
2019-02-20T13:50:06.334Z,10.90
2019-02-20T13:52:52.454Z,10.90
2019-02-20T13:55:40.610Z,11.63
2019-02-20T13:58:23.237Z,11.77
2019-02-20T14:01:12.969Z,11.30
2019-02-20T14:04:02.700Z,11.00
2019-02-20T14:06:48.895Z,10.77
2019-02-20T14:09:57.745Z,10.87
2019-02-20T14:12:47.531Z,10.97
2019-02-20T14:15:37.338Z,11.13
2019-02-20T14:18:21.727Z,10.10
2019-02-20T14:21:11.586Z,10.40
2019-02-20T14:24:01.306Z,9.80
2019-02-20T14:26:51.017Z,10.30
2019-02-20T14:29:40.750Z,10.73
2019-02-20T14:32:22.903Z,9.07
2019-02-20T14:35:12.675Z,9.30
2019-02-20T14:37:57.041Z,9.77
2019-02-20T14:40:46.816Z,9.07
2019-02-20T14:43:30.517Z,9.40
2019-02-20T14:46:01.213Z,9.30
2019-02-20T14:48:50.956Z,9.37
2019-02-20T14:51:33.475Z,9.30
2019-02-20T14:54:23.231Z,9.13
2019-02-20T14:57:19.321Z,8.47
2019-02-20T14:59:57.263Z,8.67
2019-02-20T15:02:47.109Z,9.03
2019-02-20T15:05:31.414Z,9.03
2019-02-20T15:08:21.159Z,7.93
2019-02-20T15:11:10.871Z,8.50
2019-02-20T15:13:55.001Z,9.90
2019-02-20T15:16:44.721Z,8.23
2019-02-20T15:19:47.087Z,8.83
2019-02-20T15:22:29.439Z,8.30
2019-02-20T15:25:19.175Z,8.53
2019-02-20T15:28:01.533Z,8.33
2019-02-20T15:30:51.271Z,9.13
2019-02-20T15:33:33.563Z,8.30
2019-02-20T15:38:58.634Z,8.03
2019-02-20T15:41:48.405Z,6.37
2019-02-20T15:44:31.044Z,7.40
2019-02-20T15:47:20.814Z,8.17
2019-02-20T15:50:11.411Z,7.87
2019-02-20T15:53:01.211Z,7.70
2019-02-20T15:55:50.979Z,7.93
2019-02-20T15:58:21.794Z,7.70
2019-02-20T16:01:11.677Z,7.67
2019-02-20T16:03:55.191Z,7.33
2019-02-20T16:06:45.272Z,7.90
2019-02-20T16:09:27.795Z,8.27
2019-02-20T16:15:14.700Z,9.70
2019-02-20T16:18:04.577Z,8.17
2019-02-20T16:20:47.140Z,8.17
2019-02-20T16:23:37.038Z,8.23
2019-02-20T16:26:26.888Z,7.67
2019-02-20T16:29:16.629Z,8.33
2019-02-20T16:32:00.515Z,7.87
2019-02-20T16:34:43.480Z,9.07
2019-02-20T16:37:33.256Z,8.23
2019-02-20T16:40:23.025Z,8.43
2019-02-20T16:43:24.742Z,8.50
2019-02-20T16:46:06.948Z,8.50
2019-02-20T16:48:57.216Z,8.83
2019-02-20T16:51:39.928Z,8.63
2019-02-20T16:54:29.772Z,8.90
2019-02-20T16:57:19.528Z,8.53
2019-02-20T17:03:13.134Z,8.00
2019-02-20T17:05:55.142Z,8.50
2019-02-20T17:08:45.131Z,8.30
2019-02-20T17:11:34.998Z,8.00
2019-02-20T17:14:25.264Z,9.00
2019-02-20T17:17:14.973Z,9.10
2019-02-20T17:19:57.432Z,8.53
2019-02-20T17:25:51.184Z,8.87
2019-02-20T17:28:33.437Z,8.20
2019-02-20T17:31:22.920Z,8.67
2019-02-20T17:34:05.713Z,8.40
2019-02-20T17:36:55.502Z,9.17
2019-02-20T17:39:37.534Z,8.03
2019-02-20T17:42:27.306Z,8.60
2019-02-20T17:45:30.093Z,8.70
2019-02-20T17:48:12.072Z,8.07
2019-02-20T17:53:56.905Z,8.97
2019-02-20T17:56:46.702Z,8.50
2019-02-20T17:59:30.482Z,8.53
2019-02-20T18:02:20.892Z,8.30
2019-02-20T18:04:51.557Z,8.63
2019-02-20T18:07:48.622Z,8.77
2019-02-20T18:10:25.732Z,8.90
2019-02-20T18:13:15.566Z,9.23
2019-02-20T18:16:05.318Z,8.97
2019-02-20T18:18:55.072Z,9.70
2019-02-20T18:21:37.655Z,9.10
2019-02-20T18:24:27.372Z,9.10
2019-02-20T18:27:09.947Z,10.20
2019-02-20T18:29:59.679Z,10.53
2019-02-20T18:32:41.595Z,11.10
2019-02-20T18:35:12.570Z,12.23
2019-02-20T18:38:15.145Z,12.20
2019-02-20T18:40:57.255Z,11.47
2019-02-20T18:43:46.997Z,11.17
2019-02-20T18:46:29.555Z,11.17
2019-02-20T18:49:21.066Z,11.07
2019-02-20T18:52:03.449Z,10.93
2019-02-20T18:57:48.587Z,11.17
2019-02-20T19:00:30.650Z,11.50
2019-02-20T19:03:20.410Z,11.93
2019-02-20T19:09:08.936Z,12.20
2019-02-20T19:12:05.865Z,11.40
2019-02-20T19:14:52.374Z,11.33
2019-02-20T19:17:52.788Z,10.60
2019-02-20T19:20:47.539Z,11.60
2019-02-20T19:24:15.459Z,11.37
2019-02-20T19:27:19.958Z,11.57
2019-02-20T19:30:47.992Z,11.23
2019-02-20T19:33:50.661Z,11.53
2019-02-20T19:37:18.549Z,11.63
2019-02-20T19:40:10.476Z,11.83
2019-02-20T19:43:38.419Z,12.17
2019-02-20T19:46:46.024Z,12.13
2019-02-20T19:49:59.844Z,10.87
2019-02-20T19:53:20.171Z,11.63
2019-02-20T19:56:50.632Z,11.57
2019-02-20T19:59:44.759Z,11.80
2019-02-20T20:03:12.362Z,12.50
2019-02-20T20:05:58.409Z,11.23
2019-02-20T20:09:14.521Z,10.90
2019-02-20T20:12:15.856Z,11.30
2019-02-20T20:15:31.658Z,11.93
2019-02-20T20:18:38.953Z,11.70
2019-02-20T20:22:06.783Z,11.33
2019-02-20T20:25:09.346Z,12.67
2019-02-20T20:28:21.291Z,13.00
2019-02-20T20:38:00.224Z,13.33
2019-02-20T20:41:28.102Z,13.17
2019-02-20T20:44:16.166Z,12.03
2019-02-20T20:47:13.776Z,12.77
2019-02-20T20:50:16.385Z,12.20
2019-02-20T20:53:44.320Z,11.70
2019-02-20T20:56:33.310Z,11.43
2019-02-20T20:59:44.952Z,12.07
2019-02-20T21:02:33.855Z,12.17
2019-02-20T21:09:20.262Z,11.70
2019-02-20T21:12:48.122Z,11.60
2019-02-20T21:15:50.729Z,11.87
2019-02-20T21:21:43.114Z,11.03
2019-02-20T21:25:00.745Z,11.73
2019-02-20T21:28:07.684Z,10.47
2019-02-20T21:31:22.022Z,10.77
2019-02-20T21:34:09.085Z,11.13
2019-02-20T21:37:37.418Z,11.27
2019-02-20T21:40:26.508Z,11.13
2019-02-20T21:43:39.638Z,11.60
2019-02-20T21:46:52.560Z,10.87
2019-02-20T21:49:38.002Z,11.73
2019-02-20T21:53:05.952Z,11.20
2019-02-20T21:56:33.852Z,11.37
2019-02-20T21:59:22.212Z,10.80
2019-02-20T22:02:50.156Z,10.90
2019-02-20T22:05:54.515Z,11.30
2019-02-20T22:09:22.376Z,10.90
2019-02-20T22:12:11.726Z,10.63
2019-02-20T22:15:39.662Z,10.33
2019-02-20T22:19:08.382Z,11.67
2019-02-20T22:22:10.388Z,12.17
2019-02-20T22:28:44.463Z,11.20
2019-02-20T22:31:31.912Z,11.30
2019-02-20T22:34:59.845Z,11.53
2019-02-20T22:37:49.697Z,12.10
2019-02-20T22:46:44.632Z,11.33
2019-02-20T22:49:47.641Z,12.30
2019-02-20T22:53:01.316Z,13.30
2019-02-20T22:56:02.583Z,12.57
2019-02-20T22:59:30.413Z,12.40
2019-02-20T23:02:33.501Z,12.87
2019-02-20T23:06:01.333Z,13.03
2019-02-20T23:09:05.607Z,12.90
2019-02-20T23:12:33.603Z,12.07
2019-02-20T23:15:17.971Z,12.90
2019-02-20T23:18:07.752Z,12.80
2019-02-20T23:20:51.373Z,12.47
2019-02-20T23:23:41.070Z,13.07
2019-02-20T23:26:23.995Z,12.40
2019-02-20T23:28:54.707Z,12.50
2019-02-20T23:31:44.479Z,11.63
2019-02-20T23:34:27.137Z,11.40
2019-02-20T23:37:09.377Z,11.87
2019-02-20T23:39:59.147Z,11.53
2019-02-20T23:42:41.467Z,12.27
2019-02-20T23:45:31.239Z,11.77
2019-02-20T23:48:33.761Z,10.77
2019-02-20T23:51:16.081Z,11.70
2019-02-20T23:54:05.807Z,11.67
2019-02-20T23:56:36.640Z,11.43
2019-02-20T23:59:26.373Z,11.67
